Terminal Aerodrome Forecast
Issued by NWS Upton, NY

Home | Current Version | Previous Version | Text Only | Print | Product List | Glossary On
Versions: 1 2 3 4 5 6 7 8 9 10 11 12 13 14 15 16 17 18 19 20 21 22 23 24 25 26 27
000
FTUS41 KOKX 221400 AAA
TAFJFK
TAF AMD
KJFK 221441Z 2215/2318 24012G17KT P6SM FEW250
     FM221800 23015G22KT P6SM SCT250
     FM222300 23014KT P6SM SCT050 BKN100
     FM230600 23010KT P6SM BKN100=

USA.gov is the U.S. government's official web portal to all federal, state and local government web resources and services.